createdAt,value
2018-06-27T00:01:04.198Z,14.30
2018-06-27T00:03:33.382Z,14.20
2018-06-27T00:06:04.835Z,13.90
2018-06-27T00:08:33.383Z,13.90
2018-06-27T00:11:01.898Z,13.80
2018-06-27T00:16:46.538Z,13.80
2018-06-27T00:19:15.113Z,13.70
2018-06-27T00:21:49.406Z,13.70
2018-06-27T00:24:18.080Z,13.60
2018-06-27T00:26:46.608Z,13.60
2018-06-27T00:29:15.135Z,13.50
2018-06-27T00:31:43.689Z,13.50
2018-06-27T00:34:12.408Z,13.40
2018-06-27T00:39:43.865Z,13.40
2018-06-27T00:42:12.358Z,13.30
2018-06-27T00:44:40.984Z,13.40
2018-06-27T00:47:09.761Z,13.40
2018-06-27T00:49:38.289Z,13.30
2018-06-27T00:52:06.909Z,13.30
2018-06-27T00:54:35.467Z,13.30
2018-06-27T00:57:20.369Z,13.30
2018-06-27T01:02:17.382Z,13.20
2018-06-27T01:04:45.922Z,13.20
2018-06-27T01:07:15.584Z,13.20
2018-06-27T01:09:44.151Z,13.10
2018-06-27T01:12:12.866Z,13.10
2018-06-27T01:14:41.431Z,13.10
2018-06-27T01:17:09.939Z,13.10
2018-06-27T01:19:38.724Z,13.10
2018-06-27T01:27:56.214Z,13.00
2018-06-27T01:30:25.913Z,13.00
2018-06-27T01:35:25.644Z,12.90
2018-06-27T01:37:54.132Z,12.80
2018-06-27T01:40:22.713Z,12.80
2018-06-27T01:42:51.244Z,12.80
2018-06-27T01:54:10.718Z,12.60
2018-06-27T01:59:38.595Z,12.50
2018-06-27T02:02:07.153Z,12.50
2018-06-27T02:04:39.461Z,12.40
2018-06-27T02:07:08.090Z,12.40
2018-06-27T02:09:36.655Z,12.30
2018-06-27T02:12:05.218Z,12.30
2018-06-27T02:14:33.879Z,12.20
2018-06-27T02:17:02.388Z,12.20
2018-06-27T02:19:30.946Z,12.20
2018-06-27T02:21:59.620Z,12.20
2018-06-27T02:24:30.288Z,12.20
2018-06-27T02:27:05.884Z,12.20
2018-06-27T02:29:34.445Z,12.10
2018-06-27T02:32:02.983Z,12.10
2018-06-27T02:34:31.489Z,12.10
2018-06-27T02:37:00.032Z,12.10
2018-06-27T02:39:28.751Z,12.00
2018-06-27T02:41:57.311Z,12.00
2018-06-27T02:44:25.825Z,12.00
2018-06-27T02:46:54.284Z,12.00
2018-06-27T02:49:22.858Z,11.90
2018-06-27T02:51:51.424Z,11.90
2018-06-27T02:54:21.296Z,11.80
2018-06-27T02:56:49.927Z,11.80
2018-06-27T02:59:18.448Z,11.80
2018-06-27T03:01:46.951Z,11.80
2018-06-27T03:04:15.464Z,11.70
2018-06-27T03:06:44.954Z,11.70
2018-06-27T03:09:13.675Z,11.70
2018-06-27T03:11:42.929Z,11.70
2018-06-27T03:14:11.455Z,11.70
2018-06-27T03:16:39.988Z,11.70
2018-06-27T03:19:14.540Z,11.70
2018-06-27T03:21:43.058Z,11.70
2018-06-27T03:24:11.594Z,11.70
2018-06-27T03:26:40.306Z,11.80
2018-06-27T03:29:10.481Z,11.80
2018-06-27T03:31:38.981Z,11.80
2018-06-27T03:34:07.469Z,11.80
2018-06-27T03:36:35.932Z,11.80
2018-06-27T03:42:13.018Z,11.80
2018-06-27T03:44:41.684Z,11.80
2018-06-27T03:47:10.096Z,11.80
2018-06-27T03:49:38.465Z,11.90
2018-06-27T03:52:07.023Z,11.90
2018-06-27T03:54:35.739Z,11.90
2018-06-27T03:57:04.043Z,12.00
2018-06-27T03:59:32.694Z,12.00
2018-06-27T04:19:05.402Z,12.30
2018-06-27T04:21:33.838Z,12.30
2018-06-27T04:24:02.165Z,12.40
2018-06-27T04:26:30.584Z,12.40
2018-06-27T04:28:58.872Z,12.40
2018-06-27T04:37:11.660Z,12.50
2018-06-27T04:39:40.021Z,12.50
2018-06-27T04:42:08.416Z,12.50
2018-06-27T04:44:36.748Z,12.60
2018-06-27T04:47:05.151Z,12.60
2018-06-27T04:57:59.544Z,12.70
2018-06-27T05:00:27.927Z,12.80
2018-06-27T05:02:56.292Z,12.80
2018-06-27T05:05:24.744Z,12.90
2018-06-27T05:07:53.489Z,12.90
2018-06-27T05:10:21.851Z,12.90
2018-06-27T05:29:57.300Z,13.40
2018-06-27T05:32:25.680Z,13.50
2018-06-27T05:34:53.950Z,13.60
2018-06-27T05:37:23.030Z,13.60
2018-06-27T05:59:47.658Z,14.30
2018-06-27T06:02:16.277Z,14.40
2018-06-27T06:04:46.109Z,14.50
2018-06-27T06:07:14.576Z,14.60
2018-06-27T06:09:43.412Z,14.70
2018-06-27T06:12:11.901Z,14.70
2018-06-27T06:14:40.529Z,14.80
2018-06-27T06:17:08.973Z,14.90
2018-06-27T06:19:39.730Z,15.00
2018-06-27T06:22:08.332Z,15.20
2018-06-27T06:24:45.336Z,15.20
2018-06-27T06:27:18.335Z,15.40
2018-06-27T06:29:46.812Z,15.50
2018-06-27T06:32:15.905Z,15.60
2018-06-27T06:34:45.069Z,15.70
2018-06-27T06:39:41.833Z,15.90
2018-06-27T06:42:10.461Z,16.00
2018-06-27T07:04:46.530Z,17.00
2018-06-27T07:07:14.927Z,17.20
2018-06-27T07:09:43.642Z,17.30
2018-06-27T07:12:13.070Z,17.40
2018-06-27T07:14:51.673Z,17.50
2018-06-27T07:17:23.127Z,17.60
2018-06-27T07:19:52.082Z,17.70
2018-06-27T07:22:39.857Z,17.80
2018-06-27T07:25:08.452Z,18.00
2018-06-27T07:30:05.925Z,18.20
2018-06-27T07:32:38.042Z,18.40
2018-06-27T07:35:06.373Z,18.60
2018-06-27T07:37:34.865Z,18.70
2018-06-27T07:40:03.522Z,18.80
2018-06-27T07:42:32.138Z,18.90
2018-06-27T07:51:30.252Z,19.10
2018-06-27T07:53:59.862Z,19.20
2018-06-27T08:02:35.796Z,19.90
2018-06-27T08:05:27.671Z,20.10
2018-06-27T08:08:08.521Z,20.20
2018-06-27T08:13:36.133Z,20.50
2018-06-27T08:21:59.940Z,20.90
2018-06-27T08:24:28.576Z,21.00
2018-06-27T08:26:57.126Z,21.20
2018-06-27T08:29:25.665Z,21.30
2018-06-27T08:34:28.253Z,21.50
2018-06-27T08:36:56.832Z,21.60
2018-06-27T08:45:07.053Z,22.10
2018-06-27T08:47:35.660Z,22.30
2018-06-27T08:50:04.360Z,22.30
2018-06-27T08:53:29.221Z,22.40
2018-06-27T08:56:11.615Z,22.40
2018-06-27T08:58:41.099Z,22.50
2018-06-27T09:01:12.007Z,22.60
2018-06-27T09:03:42.101Z,22.70
2018-06-27T09:06:10.625Z,22.80
2018-06-27T09:08:39.505Z,23.00
2018-06-27T09:11:09.364Z,23.10
2018-06-27T09:16:46.065Z,23.10
2018-06-27T09:19:14.694Z,23.20
2018-06-27T09:24:11.457Z,23.40
2018-06-27T09:26:40.523Z,23.50
2018-06-27T09:29:09.070Z,23.70
2018-06-27T09:31:37.933Z,23.80
2018-06-27T09:34:12.108Z,23.80
2018-06-27T09:36:43.340Z,23.90
2018-06-27T09:39:12.194Z,24.00
2018-06-27T09:41:40.729Z,24.10
2018-06-27T09:44:09.248Z,24.20
2018-06-27T09:46:37.733Z,24.30
2018-06-27T09:49:06.397Z,24.50
2018-06-27T09:51:34.910Z,24.60
2018-06-27T09:54:08.495Z,24.50
2018-06-27T09:56:37.075Z,24.40
2018-06-27T09:59:11.879Z,24.50
2018-06-27T10:01:43.970Z,24.60
2018-06-27T10:04:12.514Z,24.90
2018-06-27T10:26:42.828Z,24.90
2018-06-27T10:29:11.464Z,24.80
2018-06-27T10:31:41.148Z,25.00
2018-06-27T10:43:41.178Z,25.30
2018-06-27T11:03:23.811Z,25.90
2018-06-27T12:05:50.481Z,27.30
2018-06-27T12:08:19.008Z,27.40
2018-06-27T12:10:49.973Z,27.50
2018-06-27T12:13:18.861Z,27.50
2018-06-27T12:15:53.409Z,27.50
2018-06-27T12:18:27.469Z,27.50
2018-06-27T12:20:56.155Z,27.30
2018-06-27T12:23:24.700Z,27.30
2018-06-27T12:25:56.325Z,27.30
2018-06-27T12:28:24.996Z,27.20
2018-06-27T12:30:53.532Z,26.90
2018-06-27T12:33:23.294Z,26.80
2018-06-27T12:35:52.055Z,26.90
2018-06-27T12:38:20.566Z,27.10
2018-06-27T12:40:49.162Z,27.20
2018-06-27T12:43:17.683Z,27.30
2018-06-27T12:45:50.124Z,27.20
2018-06-27T12:48:22.413Z,26.90
2018-06-27T12:50:50.886Z,26.80
2018-06-27T12:53:19.319Z,26.90
2018-06-27T12:55:47.942Z,27.00
2018-06-27T12:58:16.508Z,27.20
2018-06-27T13:00:45.180Z,27.30
2018-06-27T13:03:13.814Z,27.40
2018-06-27T13:23:02.699Z,27.70
2018-06-27T13:25:31.288Z,27.90
2018-06-27T13:27:59.889Z,27.90
2018-06-27T13:30:28.426Z,27.90
2018-06-27T13:35:29.922Z,28.00
2018-06-27T13:38:01.080Z,28.00
2018-06-27T13:49:15.670Z,28.00
2018-06-27T13:51:44.077Z,28.00
2018-06-27T13:54:34.655Z,28.00
2018-06-27T13:57:03.280Z,28.00
2018-06-27T13:59:32.419Z,28.00
2018-06-27T14:02:01.106Z,28.10
2018-06-27T14:04:29.701Z,28.10
2018-06-27T14:06:58.203Z,28.20
2018-06-27T14:26:35.295Z,28.50
2018-06-27T14:29:04.545Z,28.60
2018-06-27T14:31:33.150Z,28.60
2018-06-27T14:38:32.846Z,28.60
2018-06-27T14:41:06.553Z,28.70
2018-06-27T16:49:02.294Z,29.10
2018-06-27T17:09:01.324Z,29.80
2018-06-27T17:14:14.000Z,29.10
2018-06-27T19:08:42.513Z,23.40
2018-06-27T19:38:38.484Z,22.70
2018-06-27T22:21:26.338Z,18.60
2018-06-27T22:24:01.024Z,18.60
2018-06-27T22:40:54.583Z,18.20
2018-06-27T22:46:44.050Z,18.10
2018-06-27T23:40:16.140Z,17.40
2018-06-27T23:42:52.842Z,17.40
2018-06-27T23:45:27.060Z,17.40
2018-06-27T23:47:59.497Z,17.40
2018-06-27T23:50:29.938Z,17.30
